sensor_id;sensor_type;location;lat;lon;timestamp;P1;durP1;ratioP1;P2;durP2;ratioP2
75516;SDS011;64097;52.548;13.406;2023-12-14T06:01:58;6.82;;;6.07;;
75516;SDS011;64097;52.548;13.406;2023-12-14T06:04:24;6.40;;;5.80;;
75516;SDS011;64097;52.548;13.406;2023-12-14T06:06:51;6.78;;;5.60;;
75516;SDS011;64097;52.548;13.406;2023-12-14T06:09:16;7.88;;;7.07;;
75516;SDS011;64097;52.548;13.406;2023-12-14T06:11:44;6.30;;;5.70;;
75516;SDS011;64097;52.548;13.406;2023-12-14T06:14:10;6.65;;;5.95;;
75516;SDS011;64097;52.548;13.406;2023-12-14T06:16:35;8.43;;;7.55;;
75516;SDS011;64097;52.548;13.406;2023-12-14T06:19:01;7.53;;;6.75;;
75516;SDS011;64097;52.548;13.406;2023-12-14T06:21:27;6.47;;;5.80;;
75516;SDS011;64097;52.548;13.406;2023-12-14T06:23:54;6.43;;;5.50;;
75516;SDS011;64097;52.548;13.406;2023-12-14T06:26:20;6.20;;;5.70;;
75516;SDS011;64097;52.548;13.406;2023-12-14T06:28:46;7.55;;;6.75;;
75516;SDS011;64097;52.548;13.406;2023-12-14T06:31:15;6.82;;;6.13;;
75516;SDS011;64097;52.548;13.406;2023-12-14T06:33:42;8.18;;;6.88;;
75516;SDS011;64097;52.548;13.406;2023-12-14T06:36:09;8.13;;;6.70;;
75516;SDS011;64097;52.548;13.406;2023-12-14T06:38:39;7.47;;;6.78;;
75516;SDS011;64097;52.548;13.406;2023-12-14T06:41:05;6.45;;;5.80;;
75516;SDS011;64097;52.548;13.406;2023-12-14T06:43:31;6.40;;;5.80;;
75516;SDS011;64097;52.548;13.406;2023-12-14T06:45:57;5.78;;;5.28;;
75516;SDS011;64097;52.548;13.406;2023-12-14T06:48:24;5.85;;;5.32;;
75516;SDS011;64097;52.548;13.406;2023-12-14T06:50:51;6.10;;;5.60;;
75516;SDS011;64097;52.548;13.406;2023-12-14T06:53:19;6.57;;;5.97;;
75516;SDS011;64097;52.548;13.406;2023-12-14T06:55:45;6.78;;;6.18;;
75516;SDS011;64097;52.548;13.406;2023-12-14T06:58:11;6.60;;;6.00;;
75516;SDS011;64097;52.548;13.406;2023-12-14T07:00:39;6.45;;;5.85;;
75516;SDS011;64097;52.548;13.406;2023-12-14T07:03:05;6.70;;;6.00;;
75516;SDS011;64097;52.548;13.406;2023-12-14T07:05:31;6.13;;;5.50;;
75516;SDS011;64097;52.548;13.406;2023-12-14T07:07:58;6.97;;;6.28;;
75516;SDS011;64097;52.548;13.406;2023-12-14T07:10:24;7.57;;;6.68;;
75516;SDS011;64097;52.548;13.406;2023-12-14T07:12:50;6.90;;;6.20;;
75516;SDS011;64097;52.548;13.406;2023-12-14T07:15:15;7.43;;;6.68;;
75516;SDS011;64097;52.548;13.406;2023-12-14T07:17:41;7.85;;;6.72;;
75516;SDS011;64097;52.548;13.406;2023-12-14T07:20:07;7.57;;;6.78;;
75516;SDS011;64097;52.548;13.406;2023-12-14T07:22:33;7.75;;;6.72;;
75516;SDS011;64097;52.548;13.406;2023-12-14T07:24:58;8.20;;;6.78;;
75516;SDS011;64097;52.548;13.406;2023-12-14T07:27:24;8.02;;;7.15;;
75516;SDS011;64097;52.548;13.406;2023-12-14T07:29:50;8.40;;;7.60;;
75516;SDS011;64097;52.548;13.406;2023-12-14T07:32:16;7.90;;;7.10;;
75516;SDS011;64097;52.548;13.406;2023-12-14T07:34:41;8.77;;;7.85;;
75516;SDS011;64097;52.548;13.406;2023-12-14T07:37:07;9.05;;;7.40;;
75516;SDS011;64097;52.548;13.406;2023-12-14T07:39:33;9.00;;;7.85;;
75516;SDS011;64097;52.548;13.406;2023-12-14T07:41:59;9.98;;;8.63;;
75516;SDS011;64097;52.548;13.406;2023-12-14T07:44:25;9.60;;;8.50;;
75516;SDS011;64097;52.548;13.406;2023-12-14T07:46:51;10.05;;;8.90;;
75516;SDS011;64097;52.548;13.406;2023-12-14T07:49:17;10.30;;;8.98;;
75516;SDS011;64097;52.548;13.406;2023-12-14T07:51:47;9.40;;;8.45;;
75516;SDS011;64097;52.548;13.406;2023-12-14T07:54:13;10.68;;;9.13;;
75516;SDS011;64097;52.548;13.406;2023-12-14T07:56:39;12.20;;;10.30;;
75516;SDS011;64097;52.548;13.406;2023-12-14T07:59:04;10.75;;;9.60;;
75516;SDS011;64097;52.548;13.406;2023-12-14T08:01:32;10.20;;;9.00;;
75516;SDS011;64097;52.548;13.406;2023-12-14T08:03:58;9.95;;;8.63;;
75516;SDS011;64097;52.548;13.406;2023-12-14T08:06:25;12.85;;;9.98;;
75516;SDS011;64097;52.548;13.406;2023-12-14T08:08:50;10.55;;;9.20;;
75516;SDS011;64097;52.548;13.406;2023-12-14T08:11:16;11.55;;;9.15;;
75516;SDS011;64097;52.548;13.406;2023-12-14T08:13:42;10.70;;;9.18;;
75516;SDS011;64097;52.548;13.406;2023-12-14T08:16:08;10.32;;;9.25;;
75516;SDS011;64097;52.548;13.406;2023-12-14T08:18:34;9.13;;;8.23;;
75516;SDS011;64097;52.548;13.406;2023-12-14T08:20:59;9.85;;;8.50;;
75516;SDS011;64097;52.548;13.406;2023-12-14T08:23:25;9.88;;;8.88;;
75516;SDS011;64097;52.548;13.406;2023-12-14T08:25:55;10.65;;;9.38;;
75516;SDS011;64097;52.548;13.406;2023-12-14T08:28:25;9.20;;;8.30;;
75516;SDS011;64097;52.548;13.406;2023-12-14T08:30:51;10.80;;;9.70;;
75516;SDS011;64097;52.548;13.406;2023-12-14T08:33:17;10.32;;;9.10;;
75516;SDS011;64097;52.548;13.406;2023-12-14T08:35:43;10.85;;;9.55;;
75516;SDS011;64097;52.548;13.406;2023-12-14T08:38:09;10.65;;;9.55;;
75516;SDS011;64097;52.548;13.406;2023-12-14T08:40:35;11.45;;;9.80;;
75516;SDS011;64097;52.548;13.406;2023-12-14T08:43:00;11.80;;;9.82;;
75516;SDS011;64097;52.548;13.406;2023-12-14T08:45:28;9.55;;;8.55;;
75516;SDS011;64097;52.548;13.406;2023-12-14T08:47:54;9.13;;;8.13;;
75516;SDS011;64097;52.548;13.406;2023-12-14T08:50:19;10.57;;;9.13;;
75516;SDS011;64097;52.548;13.406;2023-12-14T08:52:45;11.52;;;10.32;;
75516;SDS011;64097;52.548;13.406;2023-12-14T08:55:12;11.18;;;8.70;;
75516;SDS011;64097;52.548;13.406;2023-12-14T08:57:38;10.00;;;9.00;;
75516;SDS011;64097;52.548;13.406;2023-12-14T09:00:05;9.63;;;8.63;;
75516;SDS011;64097;52.548;13.406;2023-12-14T09:02:32;10.05;;;8.65;;
75516;SDS011;64097;52.548;13.406;2023-12-14T09:04:57;11.15;;;8.95;;
75516;SDS011;64097;52.548;13.406;2023-12-14T09:07:23;10.23;;;9.15;;
75516;SDS011;64097;52.548;13.406;2023-12-14T09:09:49;10.68;;;8.90;;
75516;SDS011;64097;52.548;13.406;2023-12-14T09:12:15;10.55;;;9.25;;
75516;SDS011;64097;52.548;13.406;2023-12-14T09:14:41;9.90;;;8.90;;
75516;SDS011;64097;52.548;13.406;2023-12-14T09:17:06;11.65;;;10.20;;
75516;SDS011;64097;52.548;13.406;2023-12-14T09:19:32;11.85;;;10.30;;
75516;SDS011;64097;52.548;13.406;2023-12-14T09:21:58;11.45;;;10.13;;
75516;SDS011;64097;52.548;13.406;2023-12-14T09:24:24;10.32;;;9.25;;
75516;SDS011;64097;52.548;13.406;2023-12-14T09:26:50;11.68;;;10.43;;
75516;SDS011;64097;52.548;13.406;2023-12-14T09:29:16;10.95;;;9.60;;
75516;SDS011;64097;52.548;13.406;2023-12-14T09:31:42;12.20;;;10.35;;
75516;SDS011;64097;52.548;13.406;2023-12-14T09:34:12;10.02;;;8.98;;
75516;SDS011;64097;52.548;13.406;2023-12-14T09:36:38;11.10;;;9.20;;
75516;SDS011;64097;52.548;13.406;2023-12-14T09:39:04;10.07;;;8.90;;
75516;SDS011;64097;52.548;13.406;2023-12-14T09:41:30;10.30;;;8.57;;
75516;SDS011;64097;52.548;13.406;2023-12-14T09:43:56;10.98;;;9.23;;
75516;SDS011;64097;52.548;13.406;2023-12-14T09:46:24;11.38;;;9.15;;
75516;SDS011;64097;52.548;13.406;2023-12-14T09:48:52;10.30;;;9.05;;
75516;SDS011;64097;52.548;13.406;2023-12-14T09:51:20;11.13;;;9.30;;
75516;SDS011;64097;52.548;13.406;2023-12-14T09:53:48;10.82;;;9.73;;
75516;SDS011;64097;52.548;13.406;2023-12-14T09:56:16;12.02;;;9.73;;
75516;SDS011;64097;52.548;13.406;2023-12-14T09:58:41;11.23;;;9.85;;
75516;SDS011;64097;52.548;13.406;2023-12-14T10:01:23;11.93;;;10.35;;
75516;SDS011;64097;52.548;13.406;2023-12-14T10:03:49;12.63;;;10.38;;
75516;SDS011;64097;52.548;13.406;2023-12-14T10:06:17;12.00;;;10.55;;
75516;SDS011;64097;52.548;13.406;2023-12-14T10:08:49;12.57;;;11.02;;
75516;SDS011;64097;52.548;13.406;2023-12-14T10:11:20;13.80;;;10.80;;
75516;SDS011;64097;52.548;13.406;2023-12-14T10:13:46;14.68;;;10.93;;
75516;SDS011;64097;52.548;13.406;2023-12-14T10:16:11;12.40;;;10.43;;
75516;SDS011;64097;52.548;13.406;2023-12-14T10:18:37;12.27;;;10.50;;
75516;SDS011;64097;52.548;13.406;2023-12-14T10:21:05;11.27;;;10.07;;
75516;SDS011;64097;52.548;13.406;2023-12-14T10:23:33;12.88;;;11.13;;
75516;SDS011;64097;52.548;13.406;2023-12-14T10:25:59;13.70;;;10.95;;
75516;SDS011;64097;52.548;13.406;2023-12-14T10:28:25;12.50;;;11.18;;
75516;SDS011;64097;52.548;13.406;2023-12-14T10:30:52;11.45;;;10.10;;
75516;SDS011;64097;52.548;13.406;2023-12-14T10:33:18;10.35;;;9.27;;
75516;SDS011;64097;52.548;13.406;2023-12-14T10:35:43;12.30;;;10.20;;
75516;SDS011;64097;52.548;13.406;2023-12-14T10:38:11;11.55;;;10.07;;
75516;SDS011;64097;52.548;13.406;2023-12-14T10:40:40;11.98;;;10.55;;
75516;SDS011;64097;52.548;13.406;2023-12-14T10:43:08;11.68;;;10.48;;
75516;SDS011;64097;52.548;13.406;2023-12-14T10:45:35;13.48;;;9.98;;
75516;SDS011;64097;52.548;13.406;2023-12-14T10:48:04;11.00;;;9.88;;
75516;SDS011;64097;52.548;13.406;2023-12-14T10:50:30;10.73;;;9.63;;
75516;SDS011;64097;52.548;13.406;2023-12-14T10:52:59;9.63;;;8.63;;
75516;SDS011;64097;52.548;13.406;2023-12-14T10:55:28;11.07;;;9.50;;
75516;SDS011;64097;52.548;13.406;2023-12-14T10:58:07;10.20;;;9.10;;
75516;SDS011;64097;52.548;13.406;2023-12-14T11:00:33;11.02;;;9.68;;
75516;SDS011;64097;52.548;13.406;2023-12-14T11:03:00;9.98;;;8.98;;
75516;SDS011;64097;52.548;13.406;2023-12-14T11:05:27;10.88;;;9.40;;
75516;SDS011;64097;52.548;13.406;2023-12-14T11:07:56;10.00;;;8.35;;
75516;SDS011;64097;52.548;13.406;2023-12-14T11:10:35;10.98;;;9.73;;
75516;SDS011;64097;52.548;13.406;2023-12-14T11:13:06;11.35;;;9.30;;
75516;SDS011;64097;52.548;13.406;2023-12-14T11:15:36;10.63;;;9.52;;
75516;SDS011;64097;52.548;13.406;2023-12-14T11:23:10;9.77;;;8.52;;
75516;SDS011;64097;52.548;13.406;2023-12-14T11:25:40;10.90;;;9.20;;
75516;SDS011;64097;52.548;13.406;2023-12-14T11:28:06;9.32;;;8.25;;
75516;SDS011;64097;52.548;13.406;2023-12-14T11:30:35;10.57;;;9.00;;
75516;SDS011;64097;52.548;13.406;2023-12-14T11:33:02;10.05;;;9.05;;
75516;SDS011;64097;52.548;13.406;2023-12-14T11:35:28;9.68;;;8.65;;
75516;SDS011;64097;52.548;13.406;2023-12-14T11:37:55;10.40;;;9.07;;
75516;SDS011;64097;52.548;13.406;2023-12-14T11:40:27;8.85;;;7.95;;
75516;SDS011;64097;52.548;13.406;2023-12-14T11:43:00;9.32;;;8.30;;
75516;SDS011;64097;52.548;13.406;2023-12-14T11:45:33;9.50;;;8.52;;
75516;SDS011;64097;52.548;13.406;2023-12-14T11:47:59;9.32;;;8.32;;
75516;SDS011;64097;52.548;13.406;2023-12-14T11:50:27;10.02;;;8.80;;
75516;SDS011;64097;52.548;13.406;2023-12-14T11:52:53;9.27;;;8.32;;
75516;SDS011;64097;52.548;13.406;2023-12-14T11:55:21;9.98;;;8.20;;
75516;SDS011;64097;52.548;13.406;2023-12-14T11:57:47;10.02;;;8.48;;
75516;SDS011;64097;52.548;13.406;2023-12-14T12:00:14;8.07;;;7.25;;
75516;SDS011;64097;52.548;13.406;2023-12-14T12:02:40;7.88;;;7.07;;
75516;SDS011;64097;52.548;13.406;2023-12-14T12:05:06;8.77;;;7.90;;
75516;SDS011;64097;52.548;13.406;2023-12-14T12:07:32;8.00;;;7.20;;
75516;SDS011;64097;52.548;13.406;2023-12-14T12:09:58;8.90;;;8.00;;
75516;SDS011;64097;52.548;13.406;2023-12-14T12:12:24;8.27;;;7.45;;
75516;SDS011;64097;52.548;13.406;2023-12-14T12:14:50;8.88;;;7.97;;
75516;SDS011;64097;52.548;13.406;2023-12-14T12:17:18;8.68;;;7.78;;
75516;SDS011;64097;52.548;13.406;2023-12-14T12:19:46;9.60;;;8.60;;
75516;SDS011;64097;52.548;13.406;2023-12-14T12:22:12;8.30;;;7.50;;
75516;SDS011;64097;52.548;13.406;2023-12-14T12:24:38;9.85;;;8.85;;
75516;SDS011;64097;52.548;13.406;2023-12-14T12:27:03;9.40;;;8.40;;
75516;SDS011;64097;52.548;13.406;2023-12-14T12:29:29;9.85;;;8.80;;
75516;SDS011;64097;52.548;13.406;2023-12-14T12:31:55;11.10;;;9.00;;
75516;SDS011;64097;52.548;13.406;2023-12-14T12:34:21;10.07;;;8.82;;
75516;SDS011;64097;52.548;13.406;2023-12-14T12:36:47;10.18;;;7.93;;
75516;SDS011;64097;52.548;13.406;2023-12-14T12:39:13;10.75;;;9.13;;
75516;SDS011;64097;52.548;13.406;2023-12-14T12:41:38;9.60;;;8.30;;
75516;SDS011;64097;52.548;13.406;2023-12-14T12:44:04;9.95;;;8.95;;
75516;SDS011;64097;52.548;13.406;2023-12-14T12:46:39;9.70;;;8.20;;
75516;SDS011;64097;52.548;13.406;2023-12-14T12:49:06;10.10;;;9.00;;
75516;SDS011;64097;52.548;13.406;2023-12-14T12:51:32;9.73;;;8.70;;
75516;SDS011;64097;52.548;13.406;2023-12-14T12:53:58;10.27;;;9.18;;
75516;SDS011;64097;52.548;13.406;2023-12-14T12:56:27;9.48;;;8.45;;
75516;SDS011;64097;52.548;13.406;2023-12-14T12:58:53;9.77;;;8.77;;
75516;SDS011;64097;52.548;13.406;2023-12-14T13:01:22;9.88;;;8.88;;
75516;SDS011;64097;52.548;13.406;2023-12-14T13:03:53;10.18;;;8.95;;
75516;SDS011;64097;52.548;13.406;2023-12-14T13:06:20;9.05;;;8.15;;
75516;SDS011;64097;52.548;13.406;2023-12-14T13:08:46;9.43;;;8.43;;
75516;SDS011;64097;52.548;13.406;2023-12-14T13:11:12;10.90;;;9.45;;
75516;SDS011;64097;52.548;13.406;2023-12-14T13:13:37;10.27;;;9.15;;
75516;SDS011;64097;52.548;13.406;2023-12-14T13:16:04;10.80;;;9.13;;
75516;SDS011;64097;52.548;13.406;2023-12-14T13:18:30;9.43;;;8.40;;
75516;SDS011;64097;52.548;13.406;2023-12-14T13:20:56;10.25;;;9.20;;
75516;SDS011;64097;52.548;13.406;2023-12-14T13:23:22;9.38;;;8.43;;
75516;SDS011;64097;52.548;13.406;2023-12-14T13:25:48;10.13;;;9.02;;
75516;SDS011;64097;52.548;13.406;2023-12-14T13:28:13;10.65;;;9.55;;
75516;SDS011;64097;52.548;13.406;2023-12-14T13:30:39;9.38;;;8.32;;
75516;SDS011;64097;52.548;13.406;2023-12-14T13:33:06;9.93;;;8.23;;
75516;SDS011;64097;52.548;13.406;2023-12-14T13:35:34;10.57;;;9.23;;
75516;SDS011;64097;52.548;13.406;2023-12-14T13:38:00;11.50;;;9.30;;
75516;SDS011;64097;52.548;13.406;2023-12-14T13:40:26;11.10;;;9.90;;
75516;SDS011;64097;52.548;13.406;2023-12-14T13:42:51;10.80;;;9.35;;
75516;SDS011;64097;52.548;13.406;2023-12-14T13:45:18;12.60;;;11.30;;
75516;SDS011;64097;52.548;13.406;2023-12-14T13:47:43;11.23;;;9.95;;
75516;SDS011;64097;52.548;13.406;2023-12-14T13:50:09;10.50;;;9.38;;
75516;SDS011;64097;52.548;13.406;2023-12-14T13:52:35;9.23;;;8.27;;
75516;SDS011;64097;52.548;13.406;2023-12-14T13:55:01;10.93;;;9.65;;
75516;SDS011;64097;52.548;13.406;2023-12-14T13:57:26;10.40;;;9.27;;
75516;SDS011;64097;52.548;13.406;2023-12-14T13:59:52;10.90;;;9.18;;
